Time;durP1;ratioP1;P1;durP2;ratioP2;P2;SDS_P1;SDS_P2;PMS_P1;PMS_P2;Temp;Humidity;BMP_temperature;BMP_pressure;BME280_temperature;BME280_humidity;BME280_pressure;Samples;Min_cycle;Max_cycle;Signal;HPM_P1;HPM_P2
2023/06/14 00:01:02;;;;;;;10.75;4.95;;;;;;;13.80;56.40;99616.97;5039062;28;20048;-70
2023/06/14 00:03:28;;;;;;;7.25;5.13;;;;;;;13.76;57.04;99619.09;5036011;28;20507;-70
2023/06/14 00:05:53;;;;;;;8.88;5.35;;;;;;;13.71;56.53;99617.75;5037287;28;20040;-71
2023/06/14 00:08:19;;;;;;;9.98;5.25;;;;;;;13.66;57.09;99615.47;5011282;28;20048;-70
2023/06/14 00:10:44;;;;;;;10.80;5.40;;;;;;;13.63;56.95;99625.59;5036823;28;20040;-69
2023/06/14 00:13:10;;;;;;;10.40;5.55;;;;;;;13.59;57.27;99626.84;5037052;28;20036;-69
2023/06/14 00:15:35;;;;;;;7.10;4.88;;;;;;;13.56;57.52;99624.41;5036983;28;20048;-69
2023/06/14 00:18:02;;;;;;;9.68;4.80;;;;;;;13.51;57.89;99623.97;5019122;28;20033;-70
2023/06/14 00:20:32;;;;;;;9.93;5.68;;;;;;;13.51;57.84;99624.81;5032443;28;20059;-69
2023/06/14 00:22:58;;;;;;;9.90;5.28;;;;;;;13.48;57.59;99629.56;5034509;28;20044;-71
2023/06/14 00:25:27;;;;;;;8.15;4.80;;;;;;;13.43;57.32;99624.59;5015058;28;20492;-71
2023/06/14 00:27:54;;;;;;;9.70;5.10;;;;;;;13.38;57.61;99622.31;5026335;28;20507;-70
2023/06/14 00:30:19;;;;;;;7.13;4.65;;;;;;;13.35;57.85;99621.69;5037304;28;20063;-70
2023/06/14 00:32:45;;;;;;;13.55;5.20;;;;;;;13.30;58.30;99618.56;5019468;28;20051;-70
2023/06/14 00:35:11;;;;;;;9.90;5.40;;;;;;;13.26;58.80;99622.47;5036518;28;20075;-68
2023/06/14 00:37:37;;;;;;;8.18;5.30;;;;;;;13.21;58.70;99617.47;5034641;28;20051;-68
2023/06/14 00:40:04;;;;;;;9.20;5.75;;;;;;;13.18;58.87;99630.28;5036438;28;20586;-68
2023/06/14 00:42:31;;;;;;;7.78;5.28;;;;;;;13.15;58.72;99620.69;5016563;28;20074;-67
2023/06/14 00:44:56;;;;;;;15.18;5.00;;;;;;;13.10;59.93;99622.84;5015893;28;20063;-69
2023/06/14 00:47:23;;;;;;;9.00;5.60;;;;;;;13.08;59.91;99625.66;5035636;28;20059;-71
2023/06/14 00:49:53;;;;;;;9.20;5.88;;;;;;;13.09;60.74;99629.19;5001842;28;20503;-70
2023/06/14 00:52:20;;;;;;;10.10;5.07;;;;;;;13.05;59.12;99625.06;5034913;28;20067;-71
2023/06/14 00:54:45;;;;;;;17.00;6.50;;;;;;;13.01;60.18;99624.44;5028115;28;20048;-72
2023/06/14 00:57:12;;;;;;;11.75;6.13;;;;;;;12.98;59.78;99615.84;5033468;28;20411;-71
2023/06/14 00:59:46;;;;;;;9.18;5.65;;;;;;;13.01;60.53;99623.59;5034334;28;20044;-72
2023/06/14 01:02:14;;;;;;;11.80;5.63;;;;;;;12.96;60.39;99620.47;5034404;28;20053;-71
2023/06/14 01:04:47;;;;;;;10.18;5.20;;;;;;;12.92;60.83;99616.31;5050751;28;20052;-72
2023/06/14 01:07:39;;;;;;;10.27;5.80;;;;;;;12.92;60.11;99619.00;5028407;28;20059;-72
2023/06/14 01:10:13;;;;;;;9.90;5.75;;;;;;;12.91;60.78;99618.16;5037129;28;20052;-72
2023/06/14 01:12:57;;;;;;;10.13;5.82;;;;;;;12.97;61.38;99616.81;5038402;28;20036;-72
2023/06/14 01:15:23;;;;;;;10.90;5.32;;;;;;;12.89;60.37;99625.44;5019215;28;20118;-72
2023/06/14 01:17:51;;;;;;;11.48;6.03;;;;;;;12.88;60.20;99625.56;5035964;28;20071;-70
2023/06/14 01:20:20;;;;;;;10.63;5.00;;;;;;;12.86;61.45;99622.19;5007680;28;20048;-72
2023/06/14 01:22:55;;;;;;;10.05;6.00;;;;;;;12.90;61.57;99621.78;5034650;28;20042;-69
2023/06/14 01:25:22;;;;;;;8.00;5.50;;;;;;;12.89;60.85;99628.13;5030097;28;20055;-73
2023/06/14 01:28:01;;;;;;;13.65;5.22;;;;;;;12.93;61.22;99626.06;5047653;28;20041;-72
2023/06/14 01:30:27;;;;;;;10.13;4.97;;;;;;;12.90;60.40;99618.25;5035560;28;20044;-72
2023/06/14 01:32:54;;;;;;;13.07;6.10;;;;;;;12.94;60.86;99625.09;5035769;28;20051;-72
2023/06/14 01:35:20;;;;;;;10.77;5.78;;;;;;;12.96;61.47;99628.50;5035144;28;20048;-72
2023/06/14 01:37:48;;;;;;;11.02;5.70;;;;;;;12.95;61.05;99630.31;5017154;28;20070;-72
2023/06/14 01:40:15;;;;;;;12.73;5.05;;;;;;;12.98;60.68;99623.88;5034823;28;20055;-73
2023/06/14 01:42:42;;;;;;;12.88;5.57;;;;;;;13.01;61.82;99628.94;5035257;28;20063;-72
2023/06/14 01:45:10;;;;;;;9.65;5.80;;;;;;;13.05;61.58;99625.06;5014419;28;20060;-73
2023/06/14 01:47:36;;;;;;;13.50;6.07;;;;;;;13.08;61.08;99630.16;5044666;28;20411;-74
2023/06/14 01:50:02;;;;;;;16.95;6.70;;;;;;;13.12;61.09;99630.75;5033608;28;20048;-73
2023/06/14 01:52:30;;;;;;;12.48;6.22;;;;;;;13.16;60.82;99632.22;5010763;28;20040;-73
2023/06/14 01:54:55;;;;;;;11.85;5.70;;;;;;;13.20;61.52;99637.22;5051009;28;20052;-73
2023/06/14 01:57:23;;;;;;;9.93;5.75;;;;;;;13.24;61.24;99625.25;5027521;28;20402;-68
2023/06/14 01:59:49;;;;;;;10.63;5.97;;;;;;;13.30;60.93;99623.91;5037790;28;20044;-68
2023/06/14 02:02:15;;;;;;;10.07;6.18;;;;;;;13.35;60.95;99633.25;5015152;28;20055;-68
2023/06/14 02:04:41;;;;;;;9.00;5.78;;;;;;;13.41;61.71;99627.41;5034017;28;20052;-68
2023/06/14 02:07:06;;;;;;;14.27;6.40;;;;;;;13.49;61.15;99631.25;5049801;28;20080;-68
2023/06/14 02:09:32;;;;;;;9.52;5.72;;;;;;;13.55;61.06;99620.03;5033895;28;20032;-68
2023/06/14 02:11:57;;;;;;;12.38;5.88;;;;;;;13.63;61.43;99623.78;5041838;28;20051;-68
2023/06/14 02:14:23;;;;;;;12.23;6.00;;;;;;;13.72;61.30;99614.94;5031306;28;20040;-68
2023/06/14 02:16:48;;;;;;;9.90;6.38;;;;;;;13.81;60.86;99616.00;5041608;28;20045;-68
2023/06/14 02:19:16;;;;;;;8.63;5.95;;;;;;;13.94;61.14;99623.84;5042515;28;20063;-67
2023/06/14 02:21:41;;;;;;;21.70;6.07;;;;;;;14.05;60.46;99624.63;5041408;28;20439;-68
2023/06/14 02:24:06;;;;;;;9.35;6.47;;;;;;;14.15;60.63;99620.16;5024404;28;20047;-68
2023/06/14 02:26:32;;;;;;;11.10;6.00;;;;;;;14.26;60.05;99613.00;5041305;28;20036;-67
2023/06/14 02:28:58;;;;;;;10.90;6.40;;;;;;;14.37;59.85;99616.47;5049908;28;20047;-71
2023/06/14 02:31:23;;;;;;;10.82;6.20;;;;;;;14.52;59.79;99620.50;5034636;28;20081;-74
2023/06/14 02:33:48;;;;;;;14.07;7.85;;;;;;;14.64;59.69;99617.72;5033474;28;20508;-72
2023/06/14 02:36:13;;;;;;;13.77;6.93;;;;;;;14.75;59.31;99631.91;5017299;28;20061;-74
2023/06/14 02:38:39;;;;;;;24.17;7.75;;;;;;;14.88;59.35;99626.28;5034812;28;20047;-73
2023/06/14 02:41:05;;;;;;;14.13;7.10;;;;;;;15.01;59.25;99631.41;5050289;28;20502;-75
2023/06/14 02:43:31;;;;;;;12.15;6.53;;;;;;;15.13;59.09;99630.28;5050465;28;20036;-74
2023/06/14 02:45:57;;;;;;;9.05;6.03;;;;;;;15.26;58.53;99638.91;5029706;28;20129;-69
2023/06/14 02:48:22;;;;;;;10.90;6.53;;;;;;;15.38;58.75;99626.22;5032569;28;20045;-69
2023/06/14 02:50:48;;;;;;;9.60;5.65;;;;;;;15.49;58.33;99632.28;5034414;28;20051;-69
2023/06/14 02:53:13;;;;;;;9.25;6.43;;;;;;;15.63;58.58;99624.84;5033241;28;20040;-71
2023/06/14 02:55:39;;;;;;;9.93;6.25;;;;;;;15.76;58.33;99623.56;5049773;28;20060;-71
2023/06/14 02:58:06;;;;;;;12.30;6.53;;;;;;;15.89;57.69;99634.03;5032939;28;20052;-70
2023/06/14 03:00:31;;;;;;;11.25;6.85;;;;;;;16.03;57.54;99638.94;5034465;28;20415;-71
2023/06/14 03:02:56;;;;;;;14.82;6.57;;;;;;;16.17;56.78;99638.47;5036154;28;20047;-66
2023/06/14 03:05:23;;;;;;;15.32;6.82;;;;;;;16.32;56.82;99638.88;5015424;28;20055;-64
2023/06/14 03:07:50;;;;;;;15.15;7.30;;;;;;;16.45;56.50;99639.41;5050297;28;20044;-66
2023/06/14 03:10:15;;;;;;;18.38;7.05;;;;;;;16.62;56.31;99637.81;5051659;28;20387;-72
2023/06/14 03:12:43;;;;;;;12.05;6.57;;;;;;;16.74;56.16;99633.94;5036138;28;20055;-74
2023/06/14 03:15:10;;;;;;;13.88;6.57;;;;;;;16.86;54.89;99630.03;5052787;28;20039;-73
2023/06/14 03:17:40;;;;;;;17.45;8.55;;;;;;;17.01;54.57;99642.00;5067807;28;20058;-72
2023/06/14 03:20:08;;;;;;;16.83;7.40;;;;;;;17.16;53.77;99633.41;5058152;28;20055;-71
2023/06/14 03:22:34;;;;;;;15.73;6.63;;;;;;;17.30;53.38;99628.34;5002936;28;20537;-73
2023/06/14 03:25:00;;;;;;;10.27;6.72;;;;;;;17.46;52.18;99627.66;5068149;28;20540;-75
2023/06/14 03:27:31;;;;;;;13.18;7.55;;;;;;;17.58;52.26;99626.44;5029365;28;20063;-75
2023/06/14 03:29:57;;;;;;;15.82;7.20;;;;;;;17.68;51.48;99627.22;5032249;28;20131;-73
2023/06/14 03:32:22;;;;;;;10.68;7.50;;;;;;;17.79;50.46;99626.16;5039927;28;20498;-74
2023/06/14 03:34:47;;;;;;;11.27;7.38;;;;;;;17.92;50.67;99618.50;5019549;28;20053;-73
2023/06/14 03:37:17;;;;;;;16.92;8.18;;;;;;;18.03;50.16;99620.09;5048749;28;20703;-74
2023/06/14 03:39:46;;;;;;;14.23;8.00;;;;;;;18.15;49.54;99621.53;5023833;28;20047;-73
2023/06/14 03:42:14;;;;;;;16.90;8.65;;;;;;;18.27;48.76;99622.13;4997876;28;20459;-73
2023/06/14 03:44:41;;;;;;;15.65;7.88;;;;;;;18.37;48.22;99625.53;5022887;28;20052;-73
2023/06/14 03:47:07;;;;;;;26.48;12.90;;;;;;;18.48;47.81;99625.28;5040014;28;20043;-73
2023/06/14 03:49:32;;;;;;;20.90;13.25;;;;;;;18.62;47.82;99627.41;5040375;28;20043;-75
2023/06/14 03:51:59;;;;;;;21.30;12.27;;;;;;;18.75;47.46;99621.53;5039860;28;20406;-71
2023/06/14 03:54:27;;;;;;;19.20;10.73;;;;;;;18.89;47.15;99625.47;5023563;28;20043;-74
2023/06/14 03:56:53;;;;;;;17.60;8.40;;;;;;;19.01;46.94;99624.19;5070472;28;20047;-75
2023/06/14 03:59:18;;;;;;;22.25;8.00;;;;;;;19.11;46.74;99623.03;5039138;28;20052;-74
2023/06/14 04:01:46;;;;;;;15.85;7.78;;;;;;;19.26;46.74;99630.50;5039626;28;20383;-74
2023/06/14 04:04:16;;;;;;;19.63;7.60;;;;;;;19.37;46.06;99630.19;5057332;28;20869;-77
2023/06/14 04:06:42;;;;;;;13.70;6.95;;;;;;;19.49;45.67;99623.50;5070366;28;20032;-77
2023/06/14 04:09:09;;;;;;;18.15;7.32;;;;;;;19.61;45.37;99619.44;5040070;28;20052;-77
2023/06/14 04:11:34;;;;;;;17.75;7.88;;;;;;;19.70;45.05;99615.72;5040551;28;20379;-77
2023/06/14 04:14:01;;;;;;;14.57;7.40;;;;;;;19.82;44.93;99616.25;5071471;28;20413;-76
2023/06/14 04:16:27;;;;;;;24.73;15.35;;;;;;;19.96;44.77;99620.13;5056782;28;20040;-76
2023/06/14 04:18:54;;;;;;;26.45;14.27;;;;;;;20.08;44.56;99619.63;5039711;28;20048;-77
2023/06/14 04:21:20;;;;;;;21.52;9.80;;;;;;;20.16;43.99;99625.00;5036956;28;20055;-78
2023/06/14 04:23:46;;;;;;;18.13;7.72;;;;;;;20.24;43.51;99616.88;5066278;28;20040;-76
2023/06/14 04:26:14;;;;;;;19.27;8.32;;;;;;;20.37;43.06;99626.34;5039608;28;20414;-76
2023/06/14 04:28:40;;;;;;;20.88;7.70;;;;;;;20.48;42.89;99620.56;5071779;28;20047;-76
2023/06/14 04:31:08;;;;;;;19.25;7.70;;;;;;;20.58;42.58;99618.50;5057095;28;20051;-76
2023/06/14 04:33:42;;;;;;;13.27;7.68;;;;;;;20.64;41.65;99620.53;5039411;28;20048;-78
2023/06/14 04:36:08;;;;;;;15.82;7.28;;;;;;;20.81;42.17;99611.31;5056730;28;20050;-77
2023/06/14 04:38:35;;;;;;;18.27;10.77;;;;;;;21.05;41.82;99607.66;5038729;28;20063;-77
2023/06/14 04:41:02;;;;;;;13.73;8.35;;;;;;;21.32;41.58;99612.63;5058093;28;20692;-78
2023/06/14 04:43:27;;;;;;;21.67;9.18;;;;;;;21.65;40.89;99609.66;5056290;28;20039;-79
2023/06/14 04:45:56;;;;;;;15.30;8.55;;;;;;;21.97;40.80;99617.53;5056219;28;20044;-75
2023/06/14 04:48:22;;;;;;;14.85;8.45;;;;;;;22.35;39.81;99612.94;5015828;28;20060;-76
2023/06/14 04:50:52;;;;;;;13.57;7.90;;;;;;;22.80;39.43;99624.69;5011919;28;20045;-76
2023/06/14 04:53:21;;;;;;;15.32;7.78;;;;;;;23.23;38.63;99614.81;5034139;28;20514;-76
2023/06/14 04:55:46;;;;;;;17.85;8.40;;;;;;;23.50;38.06;99603.19;5038275;28;20058;-77
2023/06/14 04:58:12;;;;;;;19.60;8.02;;;;;;;23.71;36.97;99605.06;5038215;28;20052;-76
2023/06/14 05:00:38;;;;;;;19.13;8.07;;;;;;;24.02;36.24;99609.34;5038737;28;20051;-77
2023/06/14 05:03:05;;;;;;;17.58;7.55;;;;;;;24.17;35.92;99605.47;5053112;28;20063;-78
2023/06/14 05:05:31;;;;;;;18.30;8.13;;;;;;;24.29;35.59;99604.94;5016229;28;20047;-77
2023/06/14 05:07:58;;;;;;;14.55;7.93;;;;;;;24.45;35.15;99599.19;5048030;28;20051;-75
2023/06/14 05:10:24;;;;;;;17.10;7.00;;;;;;;24.53;34.43;99602.59;5019384;28;20590;-78
2023/06/14 05:12:50;;;;;;;11.52;6.97;;;;;;;24.65;34.34;99602.88;5003122;28;20057;-77
2023/06/14 05:15:17;;;;;;;11.65;7.38;;;;;;;24.84;34.34;99604.03;5037300;28;20040;-77
2023/06/14 05:17:43;;;;;;;8.93;6.28;;;;;;;25.11;33.42;99600.41;5023534;28;20044;-78
2023/06/14 05:20:10;;;;;;;17.30;6.57;;;;;;;25.30;33.45;99601.50;5019394;28;20052;-77
2023/06/14 05:22:35;;;;;;;11.85;6.70;;;;;;;25.42;32.38;99602.59;5021645;28;20048;-78
2023/06/14 05:25:00;;;;;;;15.18;7.38;;;;;;;25.54;32.25;99597.38;5037514;28;20048;-77
2023/06/14 05:27:25;;;;;;;7.75;5.60;;;;;;;25.54;32.53;99600.94;5047584;28;20530;-77
2023/06/14 05:29:51;;;;;;;10.30;5.75;;;;;;;25.71;31.68;99595.97;5003214;28;20068;-77
2023/06/14 05:32:16;;;;;;;8.00;5.78;;;;;;;26.03;31.55;99605.22;5038503;28;20036;-77
2023/06/14 05:34:41;;;;;;;8.68;5.93;;;;;;;26.23;31.22;99597.84;5019764;28;20402;-78
2023/06/14 05:37:06;;;;;;;10.65;5.95;;;;;;;26.49;31.63;99605.22;5037658;28;20490;-76
2023/06/14 05:39:31;;;;;;;10.18;6.70;;;;;;;26.80;30.29;99601.78;5036201;28;20055;-77
2023/06/14 05:41:57;;;;;;;10.07;5.65;;;;;;;27.16;30.27;99603.13;5034958;28;20063;-76
2023/06/14 05:44:22;;;;;;;14.18;6.43;;;;;;;27.40;30.07;99602.38;5036168;28;20047;-77
2023/06/14 05:46:47;;;;;;;11.27;5.07;;;;;;;27.56;29.04;99601.03;5036149;28;20757;-78
2023/06/14 05:49:12;;;;;;;8.55;5.40;;;;;;;27.56;28.61;99604.63;5036681;28;20048;-79
2023/06/14 05:51:37;;;;;;;7.85;5.38;;;;;;;27.70;27.82;99600.75;5018126;28;20063;-78
2023/06/14 05:54:03;;;;;;;10.25;5.97;;;;;;;28.01;28.04;99602.59;5035319;28;20055;-78
2023/06/14 05:56:28;;;;;;;12.13;6.15;;;;;;;28.20;27.72;99603.56;5035497;28;20497;-77
2023/06/14 05:58:53;;;;;;;12.10;6.05;;;;;;;28.54;27.21;99600.25;5019377;28;20036;-78
2023/06/14 06:01:19;;;;;;;10.15;6.07;;;;;;;29.11;26.74;99603.66;5036871;28;20048;-78
2023/06/14 06:03:45;;;;;;;11.57;5.78;;;;;;;29.70;25.98;99607.47;5030808;28;20060;-78
2023/06/14 06:06:11;;;;;;;9.07;5.47;;;;;;;30.13;25.21;99606.44;5036444;28;20495;-75
2023/06/14 06:08:36;;;;;;;7.93;5.45;;;;;;;30.76;25.20;99602.97;5000371;28;20443;-75
2023/06/14 06:11:01;;;;;;;11.75;7.80;;;;;;;31.23;24.09;99610.06;5033889;28;20044;-76
2023/06/14 06:13:26;;;;;;;15.73;11.20;;;;;;;31.57;23.78;99605.50;5033945;28;20047;-75
2023/06/14 06:15:52;;;;;;;8.02;5.80;;;;;;;31.42;22.60;99607.94;5016683;28;20419;-76
2023/06/14 06:18:17;;;;;;;8.48;5.40;;;;;;;31.29;22.63;99613.75;5017182;28;20037;-75
2023/06/14 06:20:43;;;;;;;9.50;4.82;;;;;;;31.62;22.38;99607.50;5034737;28;20055;-75
2023/06/14 06:23:09;;;;;;;10.15;5.03;;;;;;;31.90;22.24;99604.75;5017031;28;20044;-75
2023/06/14 06:25:35;;;;;;;5.90;4.15;;;;;;;32.33;22.03;99600.50;5016134;28;20049;-76
2023/06/14 06:28:01;;;;;;;7.60;4.05;;;;;;;33.03;21.36;99603.47;5034763;28;20383;-76
2023/06/14 06:30:26;;;;;;;11.57;4.47;;;;;;;33.54;20.80;99601.31;5016764;28;20051;-76
2023/06/14 06:32:51;;;;;;;5.97;4.72;;;;;;;34.03;20.41;99601.25;5017231;28;20560;-78
2023/06/14 06:35:17;;;;;;;7.75;4.50;;;;;;;33.97;20.08;99602.34;5035562;28;20051;-78
2023/06/14 06:37:43;;;;;;;6.30;4.40;;;;;;;34.32;20.06;99601.78;5034187;28;20071;-78
2023/06/14 06:40:09;;;;;;;6.70;4.30;;;;;;;34.93;19.95;99601.09;5017345;28;20040;-79
2023/06/14 06:42:35;;;;;;;13.32;6.47;;;;;;;34.99;19.37;99603.91;5018372;28;20380;-79
2023/06/14 06:45:03;;;;;;;8.05;4.85;;;;;;;35.21;18.89;99601.78;5036749;28;20052;-77
2023/06/14 06:47:33;;;;;;;6.85;5.32;;;;;;;33.66;19.31;99584.56;5034945;28;20043;-79
2023/06/14 06:49:58;;;;;;;5.85;4.57;;;;;;;32.74;19.97;99590.91;5036509;28;20049;-78
2023/06/14 06:52:23;;;;;;;11.45;5.00;;;;;;;32.85;19.87;99589.97;5020598;28;20534;-79
2023/06/14 06:54:50;;;;;;;8.85;4.97;;;;;;;33.55;20.46;99583.63;5022581;28;20064;-79
2023/06/14 06:57:15;;;;;;;10.88;4.95;;;;;;;34.48;20.09;99590.56;5039494;28;20045;-78
2023/06/14 06:59:40;;;;;;;6.72;4.63;;;;;;;34.99;19.32;99593.63;5022296;28;20060;-79
2023/06/14 07:02:06;;;;;;;7.57;5.30;;;;;;;35.63;18.75;99588.59;5022727;28;20064;-77
2023/06/14 07:04:31;;;;;;;8.40;5.57;;;;;;;36.34;18.42;99582.31;5058852;28;20060;-79
2023/06/14 07:06:57;;;;;;;8.35;5.05;;;;;;;36.88;18.30;99585.25;5060536;28;20032;-79
2023/06/14 07:09:23;;;;;;;8.75;5.15;;;;;;;36.79;17.39;99589.72;5042219;28;20052;-78
2023/06/14 07:11:49;;;;;;;5.68;4.93;;;;;;;36.93;17.17;99579.66;5042467;28;20052;-79
2023/06/14 07:14:14;;;;;;;6.65;5.13;;;;;;;36.98;17.26;99590.75;5060734;28;20075;-78
2023/06/14 07:16:40;;;;;;;9.23;7.75;;;;;;;37.22;16.87;99582.63;5042167;28;20047;-79
2023/06/14 07:19:06;;;;;;;7.15;5.40;;;;;;;36.98;17.30;99581.59;5041647;28;20050;-79
2023/06/14 07:21:31;;;;;;;5.88;5.25;;;;;;;37.25;17.41;99586.78;5041109;28;20059;-77
2023/06/14 07:23:56;;;;;;;5.93;4.63;;;;;;;37.91;16.74;99583.59;5041643;28;20494;-77
2023/06/14 07:26:22;;;;;;;7.30;5.50;;;;;;;37.78;16.37;99574.78;5059928;28;20032;-77
2023/06/14 07:28:48;;;;;;;7.82;5.80;;;;;;;37.84;16.73;99588.66;5058012;28;20044;-80
2023/06/14 07:31:19;;;;;;;7.85;5.63;;;;;;;37.68;16.27;99586.00;5058858;28;20398;-79
2023/06/14 07:33:44;;;;;;;7.15;5.43;;;;;;;37.75;16.19;99569.78;5041952;28;20048;-80
2023/06/14 07:36:09;;;;;;;5.43;4.93;;;;;;;38.21;16.38;99580.56;5058836;28;20040;-77
2023/06/14 07:38:36;;;;;;;5.68;5.18;;;;;;;38.34;16.26;99571.53;5023554;28;20048;-78
2023/06/14 07:41:01;;;;;;;8.32;5.60;;;;;;;38.17;15.83;99582.28;5039512;28;20426;-76
2023/06/14 07:43:27;;;;;;;7.65;6.13;;;;;;;39.09;15.70;99577.41;5043484;28;20051;-78
2023/06/14 07:45:52;;;;;;;10.60;5.45;;;;;;;39.91;15.12;99580.72;5039191;28;20044;-78
2023/06/14 07:48:18;;;;;;;7.78;6.00;;;;;;;40.38;15.04;99573.25;5037030;28;20521;-77
2023/06/14 07:50:43;;;;;;;8.82;6.43;;;;;;;41.04;14.56;99565.53;5037897;28;20051;-76
2023/06/14 07:53:09;;;;;;;7.45;5.70;;;;;;;42.15;14.31;99568.56;5037910;28;20916;-76
2023/06/14 07:55:36;;;;;;;9.60;6.13;;;;;;;42.63;13.99;99571.47;5036501;28;20052;-76
2023/06/14 07:58:02;;;;;;;7.75;6.53;;;;;;;42.99;13.95;99574.13;5019774;28;20056;-76
2023/06/14 08:00:28;;;;;;;9.30;6.97;;;;;;;43.33;13.84;99572.56;5050951;28;20050;-76
2023/06/14 08:02:58;;;;;;;8.30;6.95;;;;;;;43.76;13.64;99579.06;5046421;28;20044;-78
2023/06/14 08:05:23;;;;;;;7.13;6.53;;;;;;;43.60;13.43;99574.25;5065473;28;20047;-77
2023/06/14 08:07:48;;;;;;;7.38;6.50;;;;;;;43.14;13.38;99571.97;5051129;28;20047;-78
2023/06/14 08:10:14;;;;;;;9.65;7.65;;;;;;;42.49;13.45;99579.16;5031652;28;20056;-79
2023/06/14 08:12:39;;;;;;;7.40;6.35;;;;;;;42.23;13.82;99575.34;5040331;28;20048;-78
2023/06/14 08:15:04;;;;;;;7.25;6.43;;;;;;;42.80;14.28;99570.75;5024032;28;20047;-77
2023/06/14 08:17:31;;;;;;;7.97;6.35;;;;;;;44.01;13.40;99569.00;5040279;28;20048;-78
2023/06/14 08:19:57;;;;;;;7.57;6.93;;;;;;;44.68;13.28;99571.13;5023369;28;20530;-78
2023/06/14 08:22:24;;;;;;;15.07;13.82;;;;;;;45.27;12.88;99573.97;5057860;28;20036;-77
2023/06/14 08:24:50;;;;;;;15.68;14.38;;;;;;;45.75;12.68;99573.47;5056154;28;20055;-77
2023/06/14 08:27:15;;;;;;;10.07;9.20;;;;;;;46.23;12.53;99577.69;5022879;28;20055;-78
2023/06/14 08:29:41;;;;;;;9.50;8.70;;;;;;;46.23;12.50;99570.06;5047553;28;20052;-77
2023/06/14 08:32:06;;;;;;;10.10;8.65;;;;;;;46.23;12.20;99575.69;5056244;28;20541;-78
2023/06/14 08:34:32;;;;;;;9.40;8.50;;;;;;;46.32;11.96;99566.34;5056055;28;20075;-78
2023/06/14 08:36:57;;;;;;;9.20;8.40;;;;;;;46.47;11.85;99569.31;5056042;28;20044;-78
2023/06/14 08:39:22;;;;;;;10.27;8.73;;;;;;;46.17;12.28;99574.25;5038458;28;20055;-77
2023/06/14 08:41:51;;;;;;;12.82;9.10;;;;;;;46.04;11.93;99569.75;5057406;28;20039;-77
2023/06/14 08:44:16;;;;;;;11.18;9.82;;;;;;;45.25;12.18;99570.72;5021776;28;20449;-78
2023/06/14 08:46:42;;;;;;;11.23;9.02;;;;;;;44.72;12.22;99560.00;5055689;28;20047;-78
2023/06/14 08:49:11;;;;;;;11.52;9.02;;;;;;;44.63;12.12;99562.88;5056893;28;20051;-77
2023/06/14 08:51:40;;;;;;;9.45;8.70;;;;;;;44.66;12.34;99555.75;5037998;28;20481;-78
2023/06/14 08:54:06;;;;;;;9.85;8.95;;;;;;;44.45;12.10;99556.50;5055257;28;20044;-78
2023/06/14 08:56:33;;;;;;;9.50;8.70;;;;;;;44.70;12.33;99551.91;5038890;28;20047;-77
2023/06/14 08:59:03;;;;;;;10.65;8.32;;;;;;;45.28;12.08;99550.31;5057022;28;20044;-75
2023/06/14 09:01:37;;;;;;;9.88;8.95;;;;;;;45.48;11.96;99545.88;5056386;28;20051;-75
2023/06/14 09:04:05;;;;;;;8.65;7.95;;;;;;;44.53;12.50;99546.38;5056403;28;20064;-76
2023/06/14 09:06:30;;;;;;;12.27;8.90;;;;;;;44.03;12.33;99548.97;5055341;28;20044;-77
2023/06/14 09:08:58;;;;;;;9.45;8.55;;;;;;;44.04;12.61;99551.44;5039025;28;20059;-78
2023/06/14 09:11:25;;;;;;;11.57;9.90;;;;;;;44.52;12.39;99547.53;5057841;28;20055;-79
2023/06/14 09:13:51;;;;;;;12.15;8.65;;;;;;;45.29;12.08;99543.50;5037832;28;20394;-80
2023/06/14 09:16:16;;;;;;;10.90;9.73;;;;;;;45.42;11.67;99531.16;5057190;28;20044;-77
2023/06/14 09:18:47;;;;;;;11.73;10.73;;;;;;;46.06;11.94;99527.94;5023022;28;20047;-78
2023/06/14 09:21:15;;;;;;;11.25;10.25;;;;;;;46.11;11.85;99533.38;5058766;28;20486;-78
2023/06/14 09:23:45;;;;;;;12.02;10.75;;;;;;;46.21;11.86;99530.09;5058384;28;20036;-79
2023/06/14 09:26:12;;;;;;;11.43;10.57;;;;;;;46.74;11.33;99533.97;5038837;28;20051;-78
2023/06/14 09:28:56;;;;;;;14.05;12.65;;;;;;;48.05;11.19;99537.22;5056453;28;20359;-78
2023/06/14 09:31:22;;;;;;;14.10;13.07;;;;;;;47.18;11.00;99542.69;5037665;28;20066;-78
2023/06/14 09:33:48;;;;;;;14.75;13.75;;;;;;;47.22;11.37;99533.13;5038299;28;20036;-78
2023/06/14 09:36:21;;;;;;;14.25;13.13;;;;;;;47.78;10.97;99543.72;5037985;28;20046;-80
2023/06/14 09:38:58;;;;;;;14.10;13.15;;;;;;;48.21;10.61;99551.41;5054995;28;20044;-78
2023/06/14 09:41:35;;;;;;;14.30;12.85;;;;;;;47.72;11.03;99545.97;5038566;28;20043;-79
2023/06/14 09:44:06;;;;;;;20.83;13.88;;;;;;;47.45;10.78;99524.16;5055194;28;20032;-79
2023/06/14 09:46:32;;;;;;;16.10;15.00;;;;;;;48.01;10.97;99539.13;5038096;28;20083;-77
2023/06/14 09:48:58;;;;;;;17.80;16.50;;;;;;;48.59;10.68;99525.38;5038099;28;20040;-77
2023/06/14 09:51:25;;;;;;;16.60;15.10;;;;;;;49.04;10.22;99520.03;5038019;28;20067;-78
2023/06/14 09:53:51;;;;;;;18.50;16.77;;;;;;;49.29;10.23;99522.63;5039042;28;20050;-82
2023/06/14 09:56:33;;;;;;;17.00;15.90;;;;;;;49.83;10.03;99522.56;5047972;28;20422;-80
2023/06/14 09:58:59;;;;;;;;;;;;;;;51.57;10.23;99533.28;5056563;28;20063;-75
2023/06/14 10:01:27;;;;;;;19.42;18.20;;;;;;;49.79;10.03;99514.00;5049422;28;19931;-75
2023/06/14 10:04:03;;;;;;;18.50;17.15;;;;;;;50.38;9.77;99509.88;5002842;28;20051;-76
2023/06/14 10:06:29;;;;;;;19.25;17.95;;;;;;;50.03;9.81;99512.03;5054126;28;20402;-75
2023/06/14 10:08:59;;;;;;;23.23;21.17;;;;;;;49.97;9.74;99507.91;5037145;28;20040;-74
2023/06/14 10:11:27;;;;;;;24.02;22.27;;;;;;;49.85;9.93;99500.38;5054193;28;20502;-74
2023/06/14 10:13:53;;;;;;;22.58;20.85;;;;;;;50.10;10.10;99498.03;5054565;28;20047;-74
2023/06/14 10:16:32;;;;;;;22.77;21.15;;;;;;;49.86;9.82;99495.53;5056056;28;20043;-75
2023/06/14 10:19:17;;;;;;;18.30;16.73;;;;;;;48.98;10.28;99496.03;5071855;28;20047;-75
2023/06/14 10:22:13;;;;;;;17.52;16.27;;;;;;;48.47;10.28;99495.16;5065725;28;20052;-75
2023/06/14 10:24:42;;;;;;;16.58;15.40;;;;;;;48.01;10.24;99493.91;5044249;28;20040;-76
2023/06/14 10:27:11;;;;;;;16.45;15.00;;;;;;;47.23;10.32;99478.31;5041219;28;20047;-76
2023/06/14 10:30:03;;;;;;;14.60;13.48;;;;;;;46.95;11.02;99486.72;5021569;28;20048;-77
2023/06/14 10:32:31;;;;;;;11.82;10.90;;;;;;;44.00;11.84;99487.84;5035396;28;20048;-77
2023/06/14 10:35:05;;;;;;;9.93;9.10;;;;;;;41.21;13.31;99474.22;5055267;28;20032;-75
2023/06/14 10:37:30;;;;;;;10.07;7.30;;;;;;;38.76;14.70;99476.06;5053265;28;20047;-75
2023/06/14 10:39:56;;;;;;;7.75;6.75;;;;;;;36.84;15.84;99470.22;5036180;28;20052;-76
2023/06/14 10:42:22;;;;;;;7.70;6.22;;;;;;;35.12;16.98;99464.81;5054497;28;20040;-76
2023/06/14 10:44:53;;;;;;;6.82;6.13;;;;;;;33.65;18.45;99461.25;5055208;28;20051;-74
2023/06/14 10:47:39;;;;;;;10.65;6.38;;;;;;;32.85;18.25;99456.56;5056885;28;20430;-75
2023/06/14 10:50:10;;;;;;;6.95;5.60;;;;;;;31.66;19.92;99460.72;5038278;28;20040;-78
2023/06/14 10:52:43;;;;;;;6.30;5.63;;;;;;;30.68;20.65;99463.81;5053905;28;20513;-74
2023/06/14 10:55:14;;;;;;;8.57;6.87;;;;;;;29.79;21.75;99454.94;5058688;28;20488;-75
2023/06/14 10:57:49;;;;;;;13.93;5.97;;;;;;;29.32;21.96;99459.50;5059728;28;20289;-75
2023/06/14 11:00:20;;;;;;;9.65;5.53;;;;;;;28.75;22.52;99453.56;5042197;28;20062;-75
2023/06/14 11:03:07;;;;;;;6.70;5.18;;;;;;;28.50;22.35;99453.66;5047465;28;20052;-75
2023/06/14 11:05:41;;;;;;;8.32;5.32;;;;;;;28.02;22.99;99452.72;5038923;28;20045;-75
2023/06/14 11:08:31;;;;;;;6.93;5.70;;;;;;;27.68;23.30;99449.47;5017158;28;20055;-75
2023/06/14 11:11:01;;;;;;;9.07;5.68;;;;;;;27.41;24.49;99451.59;5029149;28;20048;-73
2023/06/14 11:13:27;;;;;;;10.63;4.95;;;;;;;27.21;24.43;99455.50;5017477;28;20052;-72
2023/06/14 11:15:53;;;;;;;8.63;4.88;;;;;;;27.05;23.99;99452.25;5044387;28;20048;-74
2023/06/14 11:18:19;;;;;;;9.23;5.07;;;;;;;26.82;23.56;99442.91;5032156;28;20052;-73
2023/06/14 11:20:46;;;;;;;9.13;5.35;;;;;;;26.48;24.57;99450.44;5050122;28;20051;-73
2023/06/14 11:23:12;;;;;;;11.52;5.18;;;;;;;26.24;24.79;99451.97;5052648;28;20051;-73
2023/06/14 11:25:37;;;;;;;4.90;4.22;;;;;;;26.03;24.88;99447.63;5051897;28;20498;-74
2023/06/14 11:28:02;;;;;;;7.03;4.45;;;;;;;25.89;25.26;99450.56;5046695;28;20047;-73